createdAt,value
2022-10-06T00:01:10.561Z,3.4
2022-10-06T00:06:08.428Z,3.4
2022-10-06T00:11:06.603Z,3.3
2022-10-06T00:16:04.946Z,3.4
2022-10-06T00:21:03.210Z,3.5
2022-10-06T00:26:01.206Z,3.5
2022-10-06T00:30:59.630Z,3.5
2022-10-06T00:35:57.722Z,3.5
2022-10-06T00:40:56.018Z,3.5
2022-10-06T00:45:54.194Z,3.5
2022-10-06T00:50:52.293Z,3.5
2022-10-06T00:55:50.321Z,3.5
2022-10-06T01:00:48.523Z,3.5
2022-10-06T01:05:46.706Z,3.5
2022-10-06T01:10:44.854Z,3.5
2022-10-06T01:15:43.040Z,3.3
2022-10-06T01:20:40.950Z,3.2
2022-10-06T01:25:39.048Z,3.2
2022-10-06T01:30:37.004Z,3.2
2022-10-06T01:35:35.220Z,3
2022-10-06T01:40:33.368Z,3
2022-10-06T01:45:31.363Z,2.9
2022-10-06T01:50:29.330Z,2.9
2022-10-06T01:55:27.154Z,2.9
2022-10-06T02:00:25.027Z,2.9
2022-10-06T02:05:23.163Z,2.8
2022-10-06T02:10:21.304Z,2.8
2022-10-06T02:15:19.426Z,2.8
2022-10-06T02:20:17.551Z,2.7
2022-10-06T02:25:15.668Z,2.7
2022-10-06T02:30:13.660Z,2.6
2022-10-06T02:35:11.571Z,2.6
2022-10-06T02:40:09.845Z,2.6
2022-10-06T02:45:07.858Z,2.5
2022-10-06T02:50:05.926Z,2.5
2022-10-06T02:55:04.065Z,2.4
2022-10-06T03:00:02.243Z,2.4
2022-10-06T03:05:00.414Z,2.4
2022-10-06T03:09:58.633Z,2.3
2022-10-06T03:14:56.528Z,2.2
2022-10-06T03:19:54.413Z,2.2
2022-10-06T03:24:52.519Z,2.2
2022-10-06T03:29:50.636Z,2.1
2022-10-06T03:34:48.769Z,2.1
2022-10-06T03:39:46.909Z,2.1
2022-10-06T03:44:44.902Z,2.1
2022-10-06T03:49:43.016Z,2
2022-10-06T03:54:41.017Z,2.1
2022-10-06T03:59:39.136Z,2
2022-10-06T04:04:37.180Z,2.1
2022-10-06T04:09:35.065Z,2
2022-10-06T04:14:33.115Z,2
2022-10-06T04:19:31.196Z,2
2022-10-06T04:24:29.560Z,2.1
2022-10-06T04:29:27.730Z,2
2022-10-06T04:34:25.860Z,2
2022-10-06T04:39:24.126Z,2.2
2022-10-06T04:44:22.572Z,2.4
2022-10-06T04:49:21.085Z,2.7
2022-10-06T04:54:19.579Z,3.1
2022-10-06T04:59:18.041Z,3.6
2022-10-06T05:04:16.472Z,4
2022-10-06T05:09:15.121Z,4.3
2022-10-06T05:14:13.654Z,4.9
2022-10-06T05:19:12.495Z,6
2022-10-06T05:24:12.186Z,7.7
2022-10-06T05:29:12.121Z,9.3
2022-10-06T05:34:12.165Z,10.6
2022-10-06T05:39:10.862Z,11.2
2022-10-06T05:44:09.528Z,12.6
2022-10-06T05:49:09.648Z,15.1
2022-10-06T05:54:10.379Z,17.3
2022-10-06T05:59:08.046Z,16.4
2022-10-06T06:04:04.832Z,14.7
2022-10-06T06:09:02.543Z,15.2
2022-10-06T06:14:00.466Z,15.1
2022-10-06T06:18:58.405Z,15.2
2022-10-06T06:23:56.630Z,15.1
2022-10-06T06:28:55.073Z,15.6
2022-10-06T06:33:54.610Z,17
2022-10-06T06:38:54.215Z,19.5
2022-10-06T06:43:55.049Z,21.7
2022-10-06T06:48:55.173Z,23.3
2022-10-06T06:53:53.801Z,23.3
2022-10-06T06:58:52.657Z,24.3
2022-10-06T07:03:57.406Z,26.3
2022-10-06T07:08:52.422Z,28.6
2022-10-06T07:13:51.707Z,29.5
2022-10-06T07:18:51.109Z,31.1
2022-10-06T07:23:50.048Z,32
2022-10-06T07:28:48.542Z,32.4
2022-10-06T07:33:47.165Z,33.2
2022-10-06T07:38:45.524Z,33.3
2022-10-06T07:43:43.891Z,33.5
2022-10-06T07:48:42.678Z,34.2
2022-10-06T07:53:40.898Z,34.2
2022-10-06T07:58:39.336Z,34.5
2022-10-06T08:03:37.443Z,34.9
2022-10-06T08:08:35.069Z,34.8
2022-10-06T08:13:33.979Z,35.8
2022-10-06T08:18:48.210Z,36.3
2022-10-06T08:23:31.057Z,36.4
2022-10-06T08:28:29.352Z,36.7
2022-10-06T08:33:27.839Z,37.1
2022-10-06T08:38:26.124Z,37.8
2022-10-06T08:43:24.495Z,38.6
2022-10-06T08:48:23.245Z,38.2
2022-10-06T08:53:20.823Z,37.4
2022-10-06T08:58:18.101Z,37.2
2022-10-06T09:03:17.272Z,38.2
2022-10-06T09:08:14.699Z,37.1
2022-10-06T09:13:12.677Z,38.2
2022-10-06T09:18:11.598Z,38.6
2022-10-06T09:23:08.897Z,37.4
2022-10-06T09:28:06.319Z,37.4
2022-10-06T09:33:04.552Z,37
2022-10-06T09:38:07.268Z,37.9
2022-10-06T09:43:01.581Z,38.2
2022-10-06T09:47:59.762Z,39.4
2022-10-06T09:52:57.801Z,37.8
2022-10-06T09:57:54.234Z,36.8
2022-10-06T10:02:53.051Z,38.4
2022-10-06T10:07:51.166Z,38.3
2022-10-06T10:12:49.724Z,39.2
2022-10-06T10:17:48.259Z,39.5
2022-10-06T10:22:45.670Z,39.2
2022-10-06T10:27:43.719Z,39
2022-10-06T10:32:41.053Z,38.1
2022-10-06T10:37:39.621Z,38.4
2022-10-06T10:42:36.263Z,37.2
2022-10-06T10:47:35.534Z,38.8
2022-10-06T10:52:34.257Z,38.9
2022-10-06T10:57:31.652Z,37.8
2022-10-06T11:02:29.449Z,37.3
2022-10-06T11:07:26.646Z,37
2022-10-06T11:12:24.815Z,36.7
2022-10-06T11:17:22.717Z,37.4
2022-10-06T11:22:21.710Z,37.6
2022-10-06T11:27:19.699Z,37.2
2022-10-06T11:32:17.423Z,37.2
2022-10-06T11:37:15.704Z,37.8
2022-10-06T11:42:13.492Z,36.9
2022-10-06T11:47:11.729Z,37.7
2022-10-06T11:52:09.864Z,37.2
2022-10-06T11:57:07.128Z,37
2022-10-06T12:02:05.750Z,37.2
2022-10-06T12:07:03.481Z,37.1
2022-10-06T12:12:00.951Z,36.2
2022-10-06T12:17:18.448Z,35.4
2022-10-06T12:21:55.579Z,35.3
2022-10-06T12:26:53.109Z,34.2
2022-10-06T12:31:51.221Z,34.2
2022-10-06T12:36:49.585Z,34.2
2022-10-06T12:41:47.360Z,32.8
2022-10-06T12:46:44.246Z,31.2
2022-10-06T12:51:40.671Z,29.1
2022-10-06T12:56:37.634Z,28.1
2022-10-06T13:01:35.214Z,27.6
2022-10-06T13:06:32.889Z,27
2022-10-06T13:11:30.409Z,26.3
2022-10-06T13:16:27.975Z,26
2022-10-06T13:21:25.821Z,25.9
2022-10-06T13:26:24.018Z,25.9
2022-10-06T13:31:21.702Z,25.5
2022-10-06T13:36:19.434Z,24.9
2022-10-06T13:41:16.745Z,24.1
2022-10-06T13:46:14.183Z,23.4
2022-10-06T13:51:11.483Z,22.8
2022-10-06T13:56:09.060Z,22.3
2022-10-06T14:01:06.977Z,21.9
2022-10-06T14:06:04.451Z,21.4
2022-10-06T14:11:02.143Z,21
2022-10-06T14:16:00.180Z,20.3
2022-10-06T14:20:57.938Z,20.1
2022-10-06T14:25:55.939Z,19.8
2022-10-06T14:30:54.177Z,19.6
2022-10-06T14:35:52.280Z,19.2
2022-10-06T14:40:50.238Z,19
2022-10-06T14:45:48.197Z,18.6
2022-10-06T14:50:46.103Z,18.2
2022-10-06T14:55:44.122Z,18
2022-10-06T15:00:41.968Z,17.8
2022-10-06T15:05:39.770Z,17.4
2022-10-06T15:10:37.664Z,16.9
2022-10-06T15:15:35.484Z,16.5
2022-10-06T15:20:33.037Z,15.9
2022-10-06T15:25:30.826Z,15.2
2022-10-06T15:30:28.202Z,14.7
2022-10-06T15:35:25.802Z,14.1
2022-10-06T15:40:23.307Z,13.7
2022-10-06T15:45:21.269Z,13.4
2022-10-06T15:50:19.166Z,13.1
2022-10-06T15:55:16.664Z,12.9
2022-10-06T16:00:14.447Z,12.4
2022-10-06T16:05:12.238Z,12.1
2022-10-06T16:10:09.808Z,11.6
2022-10-06T16:15:07.615Z,11.2
2022-10-06T16:20:05.339Z,11
2022-10-06T16:25:03.300Z,10.7
2022-10-06T16:30:01.383Z,10.4
2022-10-06T16:34:59.311Z,10.3
2022-10-06T16:39:57.366Z,10.2
2022-10-06T16:44:55.325Z,10
2022-10-06T16:49:53.244Z,9.8
2022-10-06T16:54:51.207Z,9.7
2022-10-06T16:59:49.093Z,9.5
2022-10-06T17:04:47.223Z,9.4
2022-10-06T17:09:55.950Z,9.3
2022-10-06T17:14:43.347Z,9.2
2022-10-06T17:19:41.490Z,9.1
2022-10-06T17:24:39.711Z,9.1
2022-10-06T17:29:38.003Z,9.1
2022-10-06T17:34:36.139Z,9.1
2022-10-06T17:39:34.421Z,9.1
2022-10-06T17:44:32.433Z,9.2
2022-10-06T17:49:30.618Z,9.2
2022-10-06T17:54:28.506Z,9.3
2022-10-06T17:59:26.589Z,9.5
2022-10-06T18:04:24.667Z,9.5
2022-10-06T18:09:22.909Z,9.6
2022-10-06T18:14:21.063Z,9.6
2022-10-06T18:19:19.188Z,9.4
2022-10-06T18:24:17.294Z,9.3
2022-10-06T18:29:15.501Z,9.2
2022-10-06T18:39:11.895Z,9.1
2022-10-06T18:44:09.985Z,8.9
2022-10-06T18:49:08.026Z,8.9
2022-10-06T18:54:06.168Z,8.7
2022-10-06T18:59:04.060Z,8.6
2022-10-06T19:04:02.102Z,8.7
2022-10-06T19:09:00.179Z,8.7
2022-10-06T19:13:57.897Z,8.7
2022-10-06T19:18:55.879Z,8.6
2022-10-06T19:23:53.974Z,8.4
2022-10-06T19:28:52.034Z,8.3
2022-10-06T19:33:50.147Z,8.3
2022-10-06T19:38:48.350Z,8.2
2022-10-06T19:43:46.380Z,8.1
2022-10-06T19:48:44.199Z,7.8
2022-10-06T19:53:42.561Z,7.8
2022-10-06T19:58:40.662Z,7.9
2022-10-06T20:03:38.807Z,7.9
2022-10-06T20:08:36.895Z,8
2022-10-06T20:13:35.202Z,8
2022-10-06T20:18:33.540Z,8.1
2022-10-06T20:23:31.816Z,8.1
2022-10-06T20:28:29.730Z,8
2022-10-06T20:33:27.763Z,7.9
2022-10-06T20:38:25.933Z,7.8
2022-10-06T20:43:23.969Z,7.7
2022-10-06T20:48:22.208Z,7.7
2022-10-06T20:53:20.336Z,7.6
2022-10-06T20:58:18.606Z,7.6
2022-10-06T21:03:16.797Z,7.6
2022-10-06T21:08:14.958Z,7.5
2022-10-06T21:13:13.270Z,7.4
2022-10-06T21:18:11.412Z,7.4
2022-10-06T21:23:09.656Z,7.4
2022-10-06T21:28:07.983Z,7.4
2022-10-06T21:33:06.146Z,7.4
2022-10-06T21:38:04.355Z,7.4
2022-10-06T21:43:02.527Z,7.4
2022-10-06T21:48:00.780Z,7.4
2022-10-06T21:52:59.001Z,7.4
2022-10-06T21:57:56.867Z,7.3
2022-10-06T22:02:55.165Z,7.3
2022-10-06T22:07:53.088Z,7.2
2022-10-06T22:12:51.216Z,7.3
2022-10-06T22:17:49.067Z,7.3
2022-10-06T22:22:47.105Z,7.3
2022-10-06T22:27:45.495Z,7.2
2022-10-06T22:32:43.233Z,7.2
2022-10-06T22:37:41.536Z,7.3
2022-10-06T22:42:39.465Z,7.3
2022-10-06T22:47:37.483Z,7.3
2022-10-06T22:52:35.507Z,7.3
2022-10-06T22:57:33.511Z,7.2
2022-10-06T23:02:31.725Z,7.3
2022-10-06T23:07:29.782Z,7.3
2022-10-06T23:12:28.048Z,7.4
2022-10-06T23:17:26.086Z,7.4
2022-10-06T23:22:24.160Z,7.3
2022-10-06T23:27:22.320Z,7.3
2022-10-06T23:32:20.408Z,7.3
2022-10-06T23:37:18.494Z,7.3
2022-10-06T23:42:16.269Z,7.2
2022-10-06T23:47:14.519Z,7.2
2022-10-06T23:52:12.562Z,7.2
2022-10-06T23:57:10.549Z,7.2
